Terminal Aerodrome Forecast
Issued by NWS Central Illinois

Home | Current Version | Previous Version | Text Only | Print | Product List | Glossary On
Versions: 1 2 3 4 5 6 7 8 9 10 11 12 13 14 15 16 17 18 19 20 21 22 23 24
210
FTUS43 KILX 242056 AAE
TAFPIA
TAF AMD
KPIA 242056Z 2421/2518 01008KT P6SM VCSH BKN020
     FM250100 35007KT P6SM BKN012
     FM250700 35006KT P6SM BKN009
     FM251100 33006KT 5SM BR BKN006
     FM251400 33007KT P6SM BKN018
     FM251600 31008KT P6SM SCT035=

USA.gov is the U.S. government's official web portal to all federal, state and local government web resources and services.